Time;durP1;ratioP1;P1;durP2;ratioP2;P2;SDS_P1;SDS_P2;PMS_P1;PMS_P2;Temp;Humidity;BMP_temperature;BMP_pressure;BME280_temperature;BME280_humidity;BME280_pressure;Samples;Min_cycle;Max_cycle;Signal;HPM_P1;HPM_P2
2024/01/15 00:01:36;;;;;;;37.55;17.73;;;;;;;-2.74;67.61;98932.81;4921870;29;20024;-95
2024/01/15 00:04:02;;;;;;;34.28;19.00;;;;;;;-2.74;66.97;98927.56;4938073;29;20058;-94
2024/01/15 00:06:28;;;;;;;40.58;17.88;;;;;;;-2.66;67.29;98926.56;4938473;29;20031;-94
2024/01/15 00:08:54;;;;;;;37.60;17.30;;;;;;;-2.75;67.49;98910.09;4906186;29;20118;-95
2024/01/15 00:11:20;;;;;;;36.97;18.02;;;;;;;-2.69;67.25;98922.50;4921157;29;20028;-94
2024/01/15 00:13:46;;;;;;;32.67;18.05;;;;;;;-2.87;67.31;98909.81;4937768;29;20027;-94
2024/01/15 00:16:13;;;;;;;32.67;18.77;;;;;;;-2.76;67.20;98929.56;4937980;29;20036;-94
2024/01/15 00:18:39;;;;;;;33.45;16.52;;;;;;;-2.82;67.13;98905.78;4920587;29;20036;-94
2024/01/15 00:21:06;;;;;;;33.10;18.58;;;;;;;-2.79;67.23;98919.41;4922159;29;20075;-94
2024/01/15 00:23:31;;;;;;;35.15;18.20;;;;;;;-2.79;67.03;98922.03;4920653;29;20055;-95
2024/01/15 00:25:57;;;;;;;35.83;18.13;;;;;;;-2.73;67.10;98929.16;4921713;29;20170;-94
2024/01/15 00:28:22;;;;;;;35.22;15.65;;;;;;;-2.80;66.98;98933.59;4921037;29;20134;-94
2024/01/15 00:30:48;;;;;;;35.90;17.33;;;;;;;-2.86;66.82;98905.38;4904832;29;20027;-95
2024/01/15 00:33:14;;;;;;;32.10;16.70;;;;;;;-2.81;66.48;98910.06;4937061;29;20035;-95
2024/01/15 00:35:41;;;;;;;32.00;16.05;;;;;;;-2.77;66.42;98935.81;4920315;29;20482;-94
2024/01/15 00:38:07;;;;;;;30.48;15.75;;;;;;;-2.95;67.08;98923.13;4938522;29;20035;-95
2024/01/15 00:40:34;;;;;;;33.15;15.73;;;;;;;-3.03;66.93;98915.38;4906706;29;20114;-94
2024/01/15 00:43:00;;;;;;;28.00;14.82;;;;;;;-3.03;67.19;98914.56;4920602;29;20118;-95
2024/01/15 00:45:25;;;;;;;33.03;16.27;;;;;;;-2.98;66.66;98901.66;4922438;29;20126;-95
2024/01/15 00:47:52;;;;;;;30.52;15.45;;;;;;;-2.98;66.70;98889.28;4922279;29;20454;-94
2024/01/15 00:50:18;;;;;;;26.75;15.57;;;;;;;-2.79;66.60;98915.97;4920924;29;20024;-95
2024/01/15 00:52:47;;;;;;;32.28;14.90;;;;;;;-2.99;67.22;98900.00;4921061;29;20039;-95
2024/01/15 00:55:13;;;;;;;30.00;14.57;;;;;;;-3.21;66.82;98892.19;4921139;29;20034;-94
2024/01/15 00:57:40;;;;;;;31.42;14.93;;;;;;;-3.06;66.77;98895.50;4937013;29;20039;-95
2024/01/15 01:00:06;;;;;;;27.83;15.55;;;;;;;-3.10;67.46;98893.47;4905748;29;20032;-95
2024/01/15 01:02:32;;;;;;;27.70;15.30;;;;;;;-3.06;67.09;98890.25;4920730;29;20039;-94
2024/01/15 01:05:01;;;;;;;37.90;15.77;;;;;;;-3.16;67.00;98875.78;4921602;29;20023;-94
2024/01/15 01:07:26;;;;;;;34.03;16.08;;;;;;;-3.06;66.89;98863.91;4921660;29;20032;-94
2024/01/15 01:09:52;;;;;;;31.10;15.88;;;;;;;-2.99;66.74;98884.22;4904918;29;20031;-95
2024/01/15 01:12:17;;;;;;;25.98;13.48;;;;;;;-3.21;67.32;98859.78;4921087;29;20040;-95
2024/01/15 01:14:43;;;;;;;25.23;13.82;;;;;;;-3.13;67.14;98865.69;4936847;29;20032;-94
2024/01/15 01:17:10;;;;;;;34.83;14.68;;;;;;;-3.02;66.87;98895.16;4905711;29;20032;-94
2024/01/15 01:19:37;;;;;;;32.17;13.55;;;;;;;-3.31;67.02;98860.09;4937698;29;20028;-94
2024/01/15 01:22:02;;;;;;;30.00;15.90;;;;;;;-3.33;66.66;98876.06;4919470;29;20050;-94
2024/01/15 01:24:28;;;;;;;31.35;14.93;;;;;;;-3.48;66.69;98859.56;4920633;29;20035;-94
2024/01/15 01:26:54;;;;;;;26.17;14.38;;;;;;;-3.47;66.94;98858.56;4920275;29;20075;-95
2024/01/15 01:29:20;;;;;;;26.80;14.07;;;;;;;-3.30;66.79;98877.50;4905112;29;20039;-94
2024/01/15 01:31:46;;;;;;;30.17;14.52;;;;;;;-3.36;66.88;98868.56;4920807;29;20421;-94
2024/01/15 01:34:14;;;;;;;24.27;12.25;;;;;;;-3.51;66.81;98845.00;4919915;29;20032;-95
2024/01/15 01:36:40;;;;;;;24.92;12.93;;;;;;;-3.56;66.49;98836.03;4920844;29;20047;-95
2024/01/15 01:39:06;;;;;;;26.98;13.82;;;;;;;-3.50;66.76;98836.06;4938478;29;20039;-95
2024/01/15 01:41:31;;;;;;;29.98;13.15;;;;;;;-3.45;66.52;98848.66;4939799;29;20036;-95
2024/01/15 01:44:00;;;;;;;32.22;13.05;;;;;;;-3.45;66.56;98846.03;4908733;29;20031;-94
2024/01/15 01:46:28;;;;;;;33.35;14.38;;;;;;;-3.56;67.13;98836.03;4909142;29;20050;-95
2024/01/15 01:48:54;;;;;;;25.48;13.15;;;;;;;-3.45;66.37;98841.56;4923987;29;20040;-95
2024/01/15 01:51:20;;;;;;;26.30;12.75;;;;;;;-3.35;66.66;98850.97;4923755;29;20478;-94
2024/01/15 01:53:47;;;;;;;27.42;13.57;;;;;;;-3.51;67.17;98826.56;4907175;29;20090;-94
2024/01/15 01:56:13;;;;;;;27.30;13.48;;;;;;;-3.53;67.18;98828.56;4908278;29;20032;-94
2024/01/15 01:58:39;;;;;;;27.50;13.73;;;;;;;-3.43;66.55;98830.03;4923856;29;20034;-94
2024/01/15 02:01:04;;;;;;;26.45;12.75;;;;;;;-3.40;66.92;98817.31;4907193;29;20027;-95
2024/01/15 02:03:30;;;;;;;34.05;14.70;;;;;;;-3.34;66.79;98847.31;4923645;29;20032;-94
2024/01/15 02:05:56;;;;;;;30.73;13.75;;;;;;;-3.36;66.43;98828.25;4924660;29;20035;-94
2024/01/15 02:08:23;;;;;;;31.65;13.73;;;;;;;-3.35;66.62;98822.81;4907840;29;20467;-94
2024/01/15 02:10:49;;;;;;;24.25;12.32;;;;;;;-3.51;67.05;98808.16;4923852;29;20131;-95
2024/01/15 02:13:15;;;;;;;20.92;12.65;;;;;;;-3.49;66.56;98818.47;4923743;29;20042;-94
2024/01/15 02:15:41;;;;;;;29.40;13.38;;;;;;;-3.38;66.25;98820.56;4924459;29;20040;-94
2024/01/15 02:18:07;;;;;;;25.80;12.80;;;;;;;-3.33;66.42;98820.00;4908582;29;20027;-94
2024/01/15 02:20:34;;;;;;;26.05;12.70;;;;;;;-3.30;66.22;98816.97;4922844;29;20038;-95
2024/01/15 02:23:14;;;;;;;24.67;12.25;;;;;;;-3.51;66.44;98804.69;4923608;29;20482;-96
2024/01/15 02:25:44;;;;;;;22.42;12.13;;;;;;;-3.52;67.39;98819.66;4907415;29;20040;-94
2024/01/15 02:28:11;;;;;;;22.70;11.98;;;;;;;-3.76;66.96;98791.94;4907248;29;20028;-94
2024/01/15 02:30:39;;;;;;;22.70;12.38;;;;;;;-3.59;66.50;98805.66;4907621;29;20544;-94
2024/01/15 02:33:06;;;;;;;23.48;12.40;;;;;;;-3.55;66.66;98816.59;4923584;29;20032;-95
2024/01/15 02:35:32;;;;;;;29.83;11.95;;;;;;;-3.80;67.44;98795.16;4907709;29;20505;-94
2024/01/15 02:37:58;;;;;;;21.25;11.93;;;;;;;-3.76;67.23;98812.19;4908060;29;20032;-95
2024/01/15 02:40:24;;;;;;;24.20;12.15;;;;;;;-3.84;67.47;98804.41;4923114;29;20080;-95
2024/01/15 02:42:50;;;;;;;26.10;13.35;;;;;;;-3.91;67.39;98807.81;4923752;29;20035;-94
2024/01/15 02:45:17;;;;;;;26.13;13.15;;;;;;;-3.95;67.35;98803.13;4907051;29;20039;-94
2024/01/15 02:47:42;;;;;;;24.52;12.65;;;;;;;-3.96;67.24;98781.28;4923584;29;20032;-95
2024/01/15 02:50:08;;;;;;;28.85;14.45;;;;;;;-3.95;67.89;98806.56;4907074;29;20406;-95
2024/01/15 02:52:34;;;;;;;20.48;11.98;;;;;;;-3.90;67.13;98791.03;4923318;29;20020;-94
2024/01/15 02:54:59;;;;;;;22.92;12.45;;;;;;;-3.77;67.27;98800.84;4922098;29;20027;-94
2024/01/15 02:57:25;;;;;;;24.30;13.15;;;;;;;-3.72;66.61;98798.44;4922764;29;20099;-94
2024/01/15 02:59:51;;;;;;;26.08;14.70;;;;;;;-3.82;67.58;98800.59;4922008;29;20028;-94
2024/01/15 03:02:19;;;;;;;31.20;15.65;;;;;;;-4.02;67.42;98786.47;4922449;29;20032;-94
2024/01/15 03:04:45;;;;;;;30.02;13.18;;;;;;;-4.16;67.92;98764.50;4907307;29;20028;-96
2024/01/15 03:07:11;;;;;;;26.85;13.27;;;;;;;-4.07;67.33;98768.63;4922099;29;20035;-94
2024/01/15 03:09:37;;;;;;;27.25;12.95;;;;;;;-4.10;67.64;98776.91;4907664;29;20082;-94
2024/01/15 03:12:03;;;;;;;28.55;13.77;;;;;;;-4.07;67.69;98785.22;4923155;29;20486;-94
2024/01/15 03:14:30;;;;;;;27.98;13.75;;;;;;;-4.04;67.34;98776.16;4938568;29;20019;-93
2024/01/15 03:16:56;;;;;;;23.85;11.85;;;;;;;-3.99;67.52;98796.59;4923256;29;20387;-95
2024/01/15 03:19:22;;;;;;;30.13;13.82;;;;;;;-4.08;67.52;98780.97;4937844;29;20040;-96
2024/01/15 03:21:48;;;;;;;29.45;14.13;;;;;;;-3.96;67.75;98812.03;4906600;29;20035;-94
2024/01/15 03:24:14;;;;;;;32.97;13.80;;;;;;;-4.12;67.82;98790.22;4923579;29;20031;-93
2024/01/15 03:26:40;;;;;;;23.17;13.30;;;;;;;-4.15;67.34;98781.88;4922029;29;20063;-94
2024/01/15 03:29:07;;;;;;;37.83;12.38;;;;;;;-3.92;67.27;98806.19;4906553;29;20058;-95
2024/01/15 03:31:33;;;;;;;26.52;12.70;;;;;;;-3.93;66.83;98791.41;4906702;29;20054;-94
2024/01/15 03:34:00;;;;;;;27.95;14.25;;;;;;;-3.81;67.18;98796.97;4906483;29;20470;-96
2024/01/15 03:36:27;;;;;;;27.75;14.23;;;;;;;-3.93;67.48;98787.97;4922551;29;20024;-95
2024/01/15 03:38:52;;;;;;;34.17;14.95;;;;;;;-4.07;67.32;98782.59;4906027;29;20056;-94
2024/01/15 03:41:19;;;;;;;28.83;14.15;;;;;;;-4.01;67.43;98788.09;4922411;29;20051;-95
2024/01/15 03:43:46;;;;;;;27.92;14.13;;;;;;;-4.00;67.32;98806.31;4922040;29;20035;-95
2024/01/15 03:46:13;;;;;;;32.78;15.55;;;;;;;-4.23;67.35;98779.38;4906101;29;20031;-95
2024/01/15 03:48:42;;;;;;;28.63;15.00;;;;;;;-4.19;67.88;98799.88;4922175;29;20090;-94
2024/01/15 03:51:08;;;;;;;30.80;15.45;;;;;;;-4.08;67.88;98798.56;4906305;29;20063;-94
2024/01/15 03:53:33;;;;;;;28.40;14.18;;;;;;;-4.07;67.81;98787.88;4921514;29;20149;-96
2024/01/15 03:55:59;;;;;;;36.05;15.20;;;;;;;-3.91;67.22;98789.41;4921508;29;20027;-93
2024/01/15 03:58:24;;;;;;;29.70;14.15;;;;;;;-3.83;67.16;98774.50;4904845;29;20031;-95
2024/01/15 04:00:51;;;;;;;25.38;13.32;;;;;;;-3.78;67.04;98778.16;4921070;29;20028;-95
2024/01/15 04:03:17;;;;;;;29.00;14.63;;;;;;;-3.78;67.12;98785.25;4920727;29;20107;-94
2024/01/15 04:05:43;;;;;;;31.15;14.90;;;;;;;-3.84;66.92;98788.63;4921630;29;20028;-94
2024/01/15 04:08:09;;;;;;;28.90;15.02;;;;;;;-3.96;66.80;98767.31;4922620;29;20039;-94
2024/01/15 04:10:37;;;;;;;31.45;15.32;;;;;;;-3.98;66.84;98771.97;4906287;29;20023;-94
2024/01/15 04:13:04;;;;;;;29.52;14.27;;;;;;;-3.85;66.93;98787.84;4937876;29;20425;-93
2024/01/15 04:15:30;;;;;;;30.23;14.50;;;;;;;-3.88;66.76;98777.69;4906150;29;20116;-95
2024/01/15 04:17:56;;;;;;;35.65;18.17;;;;;;;-3.92;66.78;98760.66;4906106;29;20031;-94
2024/01/15 04:20:22;;;;;;;35.38;16.40;;;;;;;-3.78;66.83;98780.78;4905031;29;20035;-94
2024/01/15 04:22:48;;;;;;;30.30;16.25;;;;;;;-3.89;66.99;98763.72;4905966;29;20038;-95
2024/01/15 04:25:13;;;;;;;32.38;15.70;;;;;;;-3.90;66.70;98759.47;4921282;29;20155;-95
2024/01/15 04:27:39;;;;;;;27.13;15.63;;;;;;;-3.75;65.83;98763.84;4921194;29;20051;-93
2024/01/15 04:30:06;;;;;;;36.75;16.65;;;;;;;-3.87;66.99;98766.97;4921555;29;20024;-95
2024/01/15 04:32:31;;;;;;;32.10;16.77;;;;;;;-3.98;66.86;98751.72;4904995;29;20071;-94
2024/01/15 04:34:57;;;;;;;34.80;17.77;;;;;;;-4.12;66.83;98755.25;4921554;29;20032;-95
2024/01/15 04:37:22;;;;;;;34.03;16.27;;;;;;;-4.14;67.24;98754.63;4920647;29;20102;-93
2024/01/15 04:39:48;;;;;;;31.55;15.88;;;;;;;-4.11;67.27;98755.06;4906214;29;20027;-95
2024/01/15 04:42:14;;;;;;;31.15;16.02;;;;;;;-4.26;67.28;98735.91;4939190;29;20031;-94
2024/01/15 04:44:41;;;;;;;35.15;16.13;;;;;;;-4.23;67.54;98737.34;4921284;29;20020;-95
2024/01/15 04:47:07;;;;;;;27.33;15.07;;;;;;;-4.12;67.19;98739.47;4905956;29;20039;-94
2024/01/15 04:49:36;;;;;;;27.05;14.98;;;;;;;-4.01;66.73;98744.19;4906006;29;20031;-95
2024/01/15 04:52:02;;;;;;;35.15;16.23;;;;;;;-3.96;67.13;98760.25;4908029;29;20036;-94
2024/01/15 04:54:28;;;;;;;35.50;16.58;;;;;;;-4.10;66.33;98755.88;4922910;29;20031;-93
2024/01/15 04:57:04;;;;;;;32.58;16.73;;;;;;;-4.29;66.87;98742.34;4911319;29;20035;-96
2024/01/15 04:59:35;;;;;;;36.35;17.88;;;;;;;-4.10;66.60;98750.59;4918963;29;20035;-96
2024/01/15 05:02:01;;;;;;;37.33;17.90;;;;;;;-4.07;66.67;98750.22;4931064;29;20028;-96
2024/01/15 05:04:28;;;;;;;33.38;16.75;;;;;;;-4.18;66.52;98727.09;4925897;29;20422;-96
2024/01/15 05:06:57;;;;;;;51.78;23.60;;;;;;;-4.22;67.11;98739.78;4919974;29;20038;-96
2024/01/15 05:09:23;;;;;;;42.60;19.67;;;;;;;-4.24;67.36;98722.59;4916644;29;20036;-95
2024/01/15 05:11:52;;;;;;;39.10;19.67;;;;;;;-4.19;67.06;98721.03;4910996;29;20477;-96
2024/01/15 05:14:18;;;;;;;36.10;18.33;;;;;;;-4.06;66.64;98741.34;4912277;29;20460;-96
2024/01/15 05:16:50;;;;;;;37.75;19.58;;;;;;;-3.97;67.06;98749.91;4945400;29;20094;-95
2024/01/15 05:19:16;;;;;;;43.47;25.05;;;;;;;-4.14;67.21;98726.50;4927602;29;20035;-94
2024/01/15 05:22:24;;;;;;;38.38;18.23;;;;;;;-4.21;67.10;98715.13;4927812;29;20091;-93
2024/01/15 05:24:50;;;;;;;31.73;17.55;;;;;;;-3.97;66.71;98728.88;4944205;29;20499;-93
2024/01/15 05:27:15;;;;;;;43.97;17.80;;;;;;;-4.02;66.68;98721.56;4909963;29;20047;-94
2024/01/15 05:29:42;;;;;;;41.40;17.10;;;;;;;-4.04;66.74;98718.31;4944976;29;20034;-95
2024/01/15 05:32:08;;;;;;;36.72;17.65;;;;;;;-3.95;66.77;98730.28;4929041;29;20031;-95
2024/01/15 05:34:34;;;;;;;46.92;26.75;;;;;;;-3.93;66.54;98712.50;4911540;29;20031;-93
2024/01/15 05:37:00;;;;;;;35.83;20.15;;;;;;;-3.86;66.75;98726.53;4925977;29;20031;-92
2024/01/15 05:39:50;;;;;;;44.67;20.08;;;;;;;-3.91;66.82;98728.91;4910434;29;20470;-95
2024/01/15 05:42:15;;;;;;;41.88;20.55;;;;;;;-3.88;66.80;98730.34;4927253;29;20058;-93
2024/01/15 05:44:46;;;;;;;37.95;20.08;;;;;;;-3.95;66.44;98714.53;4911701;29;20032;-95
2024/01/15 05:47:12;;;;;;;32.80;17.30;;;;;;;-4.00;66.36;98702.97;4911493;29;20139;-95
2024/01/15 05:49:39;;;;;;;44.92;19.00;;;;;;;-3.99;66.21;98708.00;4910052;29;20095;-94
2024/01/15 05:52:04;;;;;;;35.33;17.65;;;;;;;-3.99;66.15;98700.13;4926816;29;20087;-93
2024/01/15 05:54:30;;;;;;;48.03;26.67;;;;;;;-3.98;66.43;98725.44;4928598;29;20122;-94
2024/01/15 05:56:55;;;;;;;49.67;25.23;;;;;;;-4.03;66.27;98696.25;4926266;29;20032;-94
2024/01/15 05:59:21;;;;;;;44.92;22.20;;;;;;;-3.96;66.14;98699.75;4930081;29;20039;-93
2024/01/15 06:02:09;;;;;;;44.20;21.67;;;;;;;-3.74;65.54;98718.09;4926625;29;20474;-92
2024/01/15 06:04:36;;;;;;;38.10;17.77;;;;;;;-3.86;65.38;98697.63;4911238;29;20034;-93
2024/01/15 06:07:02;;;;;;;36.67;19.92;;;;;;;-3.96;65.59;98686.63;4926784;29;20046;-92
2024/01/15 06:09:28;;;;;;;45.78;19.85;;;;;;;-3.88;65.99;98704.03;4925787;29;20028;-93
2024/01/15 06:11:57;;;;;;;44.55;20.83;;;;;;;-4.03;66.08;98683.09;4926010;29;20165;-94
2024/01/15 06:14:26;;;;;;;42.10;21.23;;;;;;;-3.88;65.87;98702.25;4931931;29;20031;-96
2024/01/15 06:16:54;;;;;;;47.83;21.58;;;;;;;-3.82;65.94;98679.59;4917723;29;20048;-94
2024/01/15 06:19:19;;;;;;;43.67;21.15;;;;;;;-3.79;65.79;98681.88;4925897;29;20489;-94
2024/01/15 06:21:45;;;;;;;45.10;20.35;;;;;;;-3.58;65.29;98675.72;4911092;29;20020;-94
2024/01/15 06:24:13;;;;;;;40.88;22.58;;;;;;;-3.50;64.88;98672.13;4908906;29;20031;-96
2024/01/15 06:26:39;;;;;;;43.28;20.25;;;;;;;-3.28;64.42;98673.66;4917627;29;20067;-94
2024/01/15 06:29:04;;;;;;;40.22;20.42;;;;;;;-3.12;63.84;98688.25;4916006;29;20501;-93
2024/01/15 06:31:30;;;;;;;41.03;20.30;;;;;;;-2.97;63.62;98684.69;4893127;29;20027;-94
2024/01/15 06:33:56;;;;;;;47.15;21.63;;;;;;;-3.09;64.17;98671.28;4891517;29;20413;-94
2024/01/15 06:36:22;;;;;;;46.63;22.40;;;;;;;-3.03;63.81;98690.72;4909523;29;20516;-94
2024/01/15 06:38:48;;;;;;;45.25;20.88;;;;;;;-3.12;63.91;98669.84;4893831;29;20043;-93
2024/01/15 06:41:16;;;;;;;42.08;21.63;;;;;;;-3.01;63.38;98672.91;4893670;29;20024;-94
2024/01/15 06:43:42;;;;;;;48.13;22.13;;;;;;;-2.89;63.48;98677.41;4893060;29;20038;-94
2024/01/15 06:46:15;;;;;;;52.03;23.48;;;;;;;-2.86;63.41;98666.47;4908994;29;20138;-93
2024/01/15 06:49:04;;;;;;;52.20;22.13;;;;;;;-2.85;63.98;98662.00;4901224;29;20028;-96
2024/01/15 06:51:35;;;;;;;60.08;28.83;;;;;;;-2.82;63.99;98653.72;4944288;29;20031;-96
2024/01/15 06:57:22;;;;;;;43.22;23.52;;;;;;;-2.51;62.93;98642.63;4942885;29;20068;-93
2024/01/15 06:59:50;;;;;;;53.03;27.45;;;;;;;-2.42;62.50;98634.50;4895517;29;20031;-94
2024/01/15 07:02:17;;;;;;;50.33;23.92;;;;;;;-2.16;62.95;98660.84;4926526;29;20038;-94
2024/01/15 07:04:43;;;;;;;40.78;21.42;;;;;;;-2.30;62.82;98631.06;4895948;29;20063;-94
2024/01/15 07:07:09;;;;;;;49.10;20.63;;;;;;;-2.08;62.94;98642.19;4895114;29;20059;-94
2024/01/15 07:09:37;;;;;;;55.10;22.52;;;;;;;-2.00;62.86;98633.25;4910534;29;20038;-96
2024/01/15 07:12:04;;;;;;;34.80;20.35;;;;;;;-1.60;61.65;98664.84;4911603;29;20461;-95
2024/01/15 07:14:33;;;;;;;45.55;22.40;;;;;;;-1.44;61.26;98659.09;4912778;29;20107;-95
2024/01/15 07:16:59;;;;;;;42.50;21.13;;;;;;;-1.49;61.29;98650.22;4910155;29;20095;-94
2024/01/15 07:19:28;;;;;;;48.00;22.55;;;;;;;-1.43;60.78;98646.75;4895135;29;20126;-95
2024/01/15 07:22:08;;;;;;;;;;;;;;;;;;;;;
2024/01/15 07:24:35;;;;;;;45.60;23.60;;;;;;;-1.12;60.60;98651.28;4928710;29;20110;-96
2024/01/15 07:27:01;;;;;;;51.13;28.48;;;;;;;-1.08;61.79;98647.19;4898097;29;20062;-95
2024/01/15 07:29:26;;;;;;;44.17;23.95;;;;;;;-0.87;61.22;98656.63;4917123;29;20095;-96
2024/01/15 07:38:18;;;;;;;;;;;;;;;;;;;;;
2024/01/15 07:47:49;;;;;;;33.37;18.40;;;;;;;0.35;57.84;98629.81;5119355;23;20125;-95
2024/01/15 07:50:17;;;;;;;22.77;13.75;;;;;;;0.65;56.13;98637.00;4949151;28;20098;-94
2024/01/15 07:52:43;;;;;;;16.52;9.52;;;;;;;0.96;52.78;98641.28;4949353;28;20038;-96
2024/01/15 07:58:09;;;;;;;45.65;25.08;;;;;;;1.15;57.31;98665.13;4934373;29;20045;-96
2024/01/15 08:00:39;;;;;;;49.10;25.13;;;;;;;1.16;56.62;98650.81;4887613;29;20457;-95
2024/01/15 08:12:53;;;;;;;45.95;24.50;;;;;;;1.67;55.24;98604.34;4846488;29;20133;-95
2024/01/15 08:15:19;;;;;;;42.90;25.25;;;;;;;2.07;54.82;98632.06;4801062;29;20065;-93
2024/01/15 08:17:48;;;;;;;39.90;22.80;;;;;;;2.32;54.42;98619.34;4827831;29;20084;-95
2024/01/15 08:20:20;;;;;;;35.92;21.33;;;;;;;2.38;54.67;98596.34;4867619;29;20033;-94
2024/01/15 08:22:49;;;;;;;;;;;;;;;2.66;54.29;98626.66;4868131;29;20112;-96
2024/01/15 08:25:24;;;;;;;43.25;21.17;;;;;;;2.46;54.08;98603.94;4868289;29;19906;-96
2024/01/15 08:27:50;;;;;;;37.25;21.38;;;;;;;2.60;54.38;98605.31;4866527;29;20558;-96
2024/01/15 08:30:24;;;;;;;36.88;21.08;;;;;;;2.79;54.56;98613.13;4866297;29;20037;-94
2024/01/15 08:32:50;;;;;;;40.95;23.30;;;;;;;2.93;54.64;98618.97;4895135;29;20032;-94
2024/01/15 08:37:54;;;;;;;49.50;26.20;;;;;;;3.30;53.37;98599.94;5269386;23;20039;-96
2024/01/15 08:41:03;;;;;;;;;;;;;;;;;;;;;
2024/01/15 08:43:55;;;;;;;82.82;42.67;;;;;;;3.63;52.98;98583.16;4952284;28;20097;-95
2024/01/15 08:52:03;;;;;;;46.50;25.95;;;;;;;3.94;52.96;98579.09;5160762;23;20047;-94
2024/01/15 09:02:01;;;;;;;;;;;;;;;;;;;;;
2024/01/15 09:11:41;;;;;;;;;;;;;;;;;;;;;
2024/01/15 09:14:40;;;;;;;38.97;22.60;;;;;;;5.42;48.99;98523.13;4835541;29;20114;-94
2024/01/15 09:17:06;;;;;;;31.55;14.75;;;;;;;5.66;47.61;98521.72;4818012;29;20129;-95
2024/01/15 09:19:35;;;;;;;27.25;17.08;;;;;;;5.88;46.65;98524.22;4858984;29;20080;-94
2024/01/15 09:22:09;;;;;;;29.10;15.30;;;;;;;6.05;45.82;98521.41;4871825;29;20514;-95
2024/01/15 09:24:50;;;;;;;24.67;13.52;;;;;;;6.17;45.54;98510.50;4884982;29;20156;-93
2024/01/15 09:27:38;;;;;;;;;;;;;;;;;;;;;
2024/01/15 09:30:33;;;;;;;24.88;12.80;;;;;;;6.50;44.22;98505.03;4898626;29;20510;-96
2024/01/15 09:33:02;;;;;;;24.13;13.32;;;;;;;6.65;43.55;98487.13;4930902;28;20048;-95
2024/01/15 09:35:57;;;;;;;28.45;15.75;;;;;;;6.81;43.10;98482.63;4920806;29;20099;-96
2024/01/15 09:38:37;;;;;;;31.55;15.65;;;;;;;7.07;43.45;98491.47;4957561;29;20103;-95
2024/01/15 09:41:05;;;;;;;21.95;12.68;;;;;;;7.21;43.50;98477.56;4921606;29;20489;-96
2024/01/15 09:43:31;;;;;;;23.02;14.27;;;;;;;7.35;42.67;98467.91;4925833;29;20039;-94
2024/01/15 09:53:52;;;;;;;27.17;14.48;;;;;;;7.89;40.77;98447.69;5799837;23;20051;-93
2024/01/15 09:56:27;;;;;;;42.95;22.90;;;;;;;8.02;40.83;98443.63;4951173;28;20031;-96
2024/01/15 09:59:09;;;;;;;36.85;17.95;;;;;;;8.08;41.03;98429.13;4941822;28;20026;-96
2024/01/15 10:05:12;;;;;;;26.85;12.60;;;;;;;8.24;39.92;98408.41;5699342;23;20055;-96
2024/01/15 10:07:39;;;;;;;42.30;18.90;;;;;;;8.42;40.38;98399.72;4945409;29;20047;-94
2024/01/15 10:10:17;;;;;;;33.28;16.30;;;;;;;8.41;40.42;98394.66;4914218;29;20034;-94
2024/01/15 10:12:42;;;;;;;50.30;23.25;;;;;;;8.46;40.96;98384.66;5099108;23;20055;-95
2024/01/15 10:15:24;;;;;;;24.08;14.30;;;;;;;8.45;40.92;98368.88;4909145;29;20046;-95
2024/01/15 10:17:53;;;;;;;35.53;15.65;;;;;;;8.73;40.58;98387.97;4913338;29;20032;-95
2024/01/15 10:20:52;;;;;;;22.83;11.90;;;;;;;8.61;40.91;98366.88;4942014;29;20047;-96
2024/01/15 10:23:28;;;;;;;;;;;;;;;;;;;;;
2024/01/15 10:26:12;;;;;;;31.02;18.88;;;;;;;8.84;41.08;98370.69;4908217;29;20035;-95
2024/01/15 10:28:48;;;;;;;;;;;;;;;;;;;;;
2024/01/15 10:31:26;;;;;;;28.75;13.40;;;;;;;8.65;41.34;98351.81;4911146;29;20046;-94
2024/01/15 10:34:34;;;;;;;29.20;14.35;;;;;;;8.63;41.06;98340.56;4909984;29;20039;-94
2024/01/15 10:37:48;;;;;;;34.30;15.05;;;;;;;8.81;41.20;98366.69;4953159;29;20039;-95
2024/01/15 10:40:42;;;;;;;22.90;11.48;;;;;;;8.83;40.63;98361.84;4907337;29;20513;-96
2024/01/15 10:54:12;;;;;;;17.52;10.05;;;;;;;8.96;40.93;98304.00;4968762;28;20075;-96
2024/01/15 10:56:47;;;;;;;35.20;14.25;;;;;;;9.08;40.90;98320.53;4912898;29;20544;-96
2024/01/15 10:59:19;;;;;;;24.75;11.95;;;;;;;9.06;41.36;98308.50;4914634;29;20129;-96
2024/01/15 11:01:50;;;;;;;29.15;10.82;;;;;;;9.20;41.00;98305.94;4913888;29;20091;-94
2024/01/15 11:04:19;;;;;;;20.98;10.75;;;;;;;9.06;40.79;98273.59;4892607;29;20031;-93
2024/01/15 11:06:47;;;;;;;19.92;10.55;;;;;;;9.26;40.12;98294.84;4895274;29;20027;-96
2024/01/15 11:09:24;;;;;;;56.25;30.77;;;;;;;9.45;40.44;98294.88;4913908;29;20015;-96
2024/01/15 11:12:17;;;;;;;23.30;11.80;;;;;;;9.47;39.59;98276.59;4912478;29;20019;-96
2024/01/15 11:14:54;;;;;;;25.08;12.45;;;;;;;9.34;39.44;98266.56;4912218;29;20024;-95
2024/01/15 11:17:20;;;;;;;23.02;10.75;;;;;;;9.46;38.31;98284.94;4913862;29;20027;-95
2024/01/15 11:19:47;;;;;;;14.73;7.60;;;;;;;9.44;38.10;98262.91;4893812;29;20063;-95
2024/01/15 11:22:31;;;;;;;17.30;5.63;;;;;;;9.58;38.26;98271.88;4921543;28;20054;-93
2024/01/15 11:25:12;;;;;;;13.02;6.68;;;;;;;9.55;38.00;98253.66;4963515;28;20035;-95
2024/01/15 11:27:51;;;;;;;16.17;7.33;;;;;;;9.71;37.42;98273.03;4931014;28;20029;-94
2024/01/15 11:30:19;;;;;;;21.15;4.38;;;;;;;9.54;36.04;98252.03;4933176;28;20412;-94
2024/01/15 11:32:46;;;;;;;17.25;6.22;;;;;;;9.54;36.99;98243.97;4931008;28;20058;-94
2024/01/15 11:35:13;;;;;;;12.38;4.90;;;;;;;9.60;36.96;98244.72;4932485;28;20034;-94
2024/01/15 11:37:51;;;;;;;19.38;7.00;;;;;;;9.84;36.48;98269.66;4932404;28;20038;-93
2024/01/15 11:40:49;;;;;;;8.65;4.13;;;;;;;9.59;35.34;98243.13;4961816;28;20069;-93
2024/01/15 11:43:24;;;;;;;10.10;3.83;;;;;;;9.63;35.07;98228.81;4921936;29;20050;-95
2024/01/15 11:45:53;;;;;;;8.40;3.50;;;;;;;9.73;35.63;98219.00;4916657;29;20027;-96
2024/01/15 11:48:23;;;;;;;15.07;3.65;;;;;;;9.88;35.85;98230.34;4913423;29;20059;-94
2024/01/15 11:50:51;;;;;;;13.32;4.15;;;;;;;9.95;35.42;98232.66;4910565;29;20027;-93
2024/01/15 11:53:18;;;;;;;9.55;4.18;;;;;;;9.96;36.53;98231.56;4911700;29;20602;-92
2024/01/15 11:55:54;;;;;;;8.98;3.95;;;;;;;9.98;35.34;98218.63;4929884;29;20082;-95
2024/01/15 11:58:19;;;;;;;5.63;2.83;;;;;;;9.79;34.35;98207.88;4913269;29;20027;-96
2024/01/15 12:25:19;;;;;;;27.42;8.88;;;;;;;10.40;33.18;98205.34;6005267;23;20025;-95
2024/01/15 12:27:50;;;;;;;8.35;3.42;;;;;;;10.15;33.40;98199.28;4963070;28;20034;-96
2024/01/15 12:30:19;;;;;;;5.28;3.03;;;;;;;9.95;33.04;98188.84;4947669;28;20069;-94
2024/01/15 12:32:47;;;;;;;7.82;3.47;;;;;;;10.16;34.18;98205.44;4955697;28;20446;-93
2024/01/15 12:35:20;;;;;;;10.20;3.83;;;;;;;10.05;34.24;98180.59;4955546;28;20027;-95
2024/01/15 12:37:49;;;;;;;6.65;3.85;;;;;;;10.22;33.55;98180.84;4937892;28;20125;-95
2024/01/15 12:40:19;;;;;;;7.63;4.35;;;;;;;10.39;34.28;98201.84;4930815;28;20377;-95
2024/01/15 12:42:52;;;;;;;12.23;3.90;;;;;;;10.41;34.97;98188.88;4948784;28;20027;-95
2024/01/15 12:45:27;;;;;;;18.10;8.85;;;;;;;10.43;34.72;98193.97;4932674;28;20031;-96
2024/01/15 12:47:56;;;;;;;29.10;12.38;;;;;;;10.57;34.23;98188.63;4937332;28;20034;-96
2024/01/15 12:50:33;;;;;;;19.00;9.57;;;;;;;10.68;34.71;98190.03;4929767;29;20024;-96
2024/01/15 12:53:09;;;;;;;;;;;;;;;;;;;;;
2024/01/15 12:55:51;;;;;;;33.15;12.85;;;;;;;10.72;34.52;98188.31;4895201;29;20116;-95
2024/01/15 13:01:57;;;;;;;;;;;;;;;;;;;;;
2024/01/15 13:04:26;;;;;;;;;;;;;;;10.74;35.03;98198.81;4917026;29;20131;-96
2024/01/15 13:06:53;;;;;;;32.55;15.20;;;;;;;10.62;35.64;98167.78;4897232;29;20536;-96
2024/01/15 13:09:27;;;;;;;36.47;13.80;;;;;;;10.70;35.46;98172.47;4897033;29;20024;-96
2024/01/15 13:11:57;;;;;;;24.33;11.13;;;;;;;10.54;35.36;98155.00;4913346;29;20052;-94
2024/01/15 13:14:29;;;;;;;38.05;12.98;;;;;;;10.59;35.60;98164.91;4896484;29;20052;-95
2024/01/15 13:17:08;;;;;;;;;;;;;;;;;;;;;
2024/01/15 13:19:45;;;;;;;14.93;5.60;;;;;;;10.54;34.69;98156.91;4890699;29;20175;-94
2024/01/15 13:22:32;;;;;;;17.88;5.38;;;;;;;10.46;35.21;98147.66;4878696;29;20032;-94
2024/01/15 13:24:59;;;;;;;17.05;10.35;;;;;;;10.56;36.21;98177.03;4916195;29;20831;-93
2024/01/15 13:28:04;;;;;;;18.73;7.38;;;;;;;10.64;35.32;98170.19;4964695;28;20070;-96
2024/01/15 13:31:33;;;;;;;22.75;9.70;;;;;;;10.43;34.96;98134.78;4874599;29;20030;-96